sensor_id;sensor_type;location;lat;lon;timestamp;P1;P2;P0
33264;PMS5003;31404;53.974;-1.086;2023-04-03T00:00:34;15;12;
33264;PMS5003;31404;53.974;-1.086;2023-04-03T00:05:34;14;10;
33264;PMS5003;31404;53.974;-1.086;2023-04-03T00:10:34;12;12;
33264;PMS5003;31404;53.974;-1.086;2023-04-03T00:15:34;10;10;
33264;PMS5003;31404;53.974;-1.086;2023-04-03T00:20:35;12;9;
33264;PMS5003;31404;53.974;-1.086;2023-04-03T00:25:34;8;8;
33264;PMS5003;31404;53.974;-1.086;2023-04-03T00:30:34;8;7;
33264;PMS5003;31404;53.974;-1.086;2023-04-03T00:35:34;8;8;
33264;PMS5003;31404;53.974;-1.086;2023-04-03T00:40:35;15;12;
33264;PMS5003;31404;53.974;-1.086;2023-04-03T00:45:34;16;13;
33264;PMS5003;31404;53.974;-1.086;2023-04-03T00:50:34;10;7;
33264;PMS5003;31404;53.974;-1.086;2023-04-03T00:55:35;8;8;
33264;PMS5003;31404;53.974;-1.086;2023-04-03T01:00:34;12;12;
33264;PMS5003;31404;53.974;-1.086;2023-04-03T01:05:35;10;10;
33264;PMS5003;31404;53.974;-1.086;2023-04-03T01:10:34;7;7;
33264;PMS5003;31404;53.974;-1.086;2023-04-03T01:15:34;9;9;
33264;PMS5003;31404;53.974;-1.086;2023-04-03T01:25:34;11;8;
33264;PMS5003;31404;53.974;-1.086;2023-04-03T01:35:34;5;5;
33264;PMS5003;31404;53.974;-1.086;2023-04-03T01:40:34;8;6;
33264;PMS5003;31404;53.974;-1.086;2023-04-03T01:45:34;5;5;
33264;PMS5003;31404;53.974;-1.086;2023-04-03T01:50:34;5;5;
33264;PMS5003;31404;53.974;-1.086;2023-04-03T01:55:34;5;5;
33264;PMS5003;31404;53.974;-1.086;2023-04-03T02:00:35;5;5;
33264;PMS5003;31404;53.974;-1.086;2023-04-03T02:05:34;6;6;
33264;PMS5003;31404;53.974;-1.086;2023-04-03T02:10:34;5;4;
33264;PMS5003;31404;53.974;-1.086;2023-04-03T02:15:34;6;6;
33264;PMS5003;31404;53.974;-1.086;2023-04-03T02:20:34;6;6;
33264;PMS5003;31404;53.974;-1.086;2023-04-03T02:25:34;6;6;
33264;PMS5003;31404;53.974;-1.086;2023-04-03T02:30:34;6;5;
33264;PMS5003;31404;53.974;-1.086;2023-04-03T02:35:33;6;6;
33264;PMS5003;31404;53.974;-1.086;2023-04-03T02:40:33;7;7;
33264;PMS5003;31404;53.974;-1.086;2023-04-03T02:45:34;10;10;
33264;PMS5003;31404;53.974;-1.086;2023-04-03T02:50:33;8;6;
33264;PMS5003;31404;53.974;-1.086;2023-04-03T02:55:34;4;4;
33264;PMS5003;31404;53.974;-1.086;2023-04-03T03:00:34;9;8;
33264;PMS5003;31404;53.974;-1.086;2023-04-03T03:05:34;10;7;
33264;PMS5003;31404;53.974;-1.086;2023-04-03T03:10:34;8;8;
33264;PMS5003;31404;53.974;-1.086;2023-04-03T03:15:34;12;12;
33264;PMS5003;31404;53.974;-1.086;2023-04-03T03:20:34;6;6;
33264;PMS5003;31404;53.974;-1.086;2023-04-03T03:30:33;9;5;
33264;PMS5003;31404;53.974;-1.086;2023-04-03T03:35:34;8;5;
33264;PMS5003;31404;53.974;-1.086;2023-04-03T03:40:34;8;5;
33264;PMS5003;31404;53.974;-1.086;2023-04-03T03:45:33;8;7;
33264;PMS5003;31404;53.974;-1.086;2023-04-03T03:50:34;8;8;
33264;PMS5003;31404;53.974;-1.086;2023-04-03T03:55:34;9;8;
33264;PMS5003;31404;53.974;-1.086;2023-04-03T04:00:34;8;8;
33264;PMS5003;31404;53.974;-1.086;2023-04-03T04:05:34;9;9;
33264;PMS5003;31404;53.974;-1.086;2023-04-03T04:10:34;8;8;
33264;PMS5003;31404;53.974;-1.086;2023-04-03T04:15:34;9;8;
33264;PMS5003;31404;53.974;-1.086;2023-04-03T04:20:34;6;6;
33264;PMS5003;31404;53.974;-1.086;2023-04-03T04:25:33;8;8;
33264;PMS5003;31404;53.974;-1.086;2023-04-03T04:30:33;14;9;
33264;PMS5003;31404;53.974;-1.086;2023-04-03T04:35:34;8;8;
33264;PMS5003;31404;53.974;-1.086;2023-04-03T04:40:34;8;8;
33264;PMS5003;31404;53.974;-1.086;2023-04-03T04:45:34;9;8;
33264;PMS5003;31404;53.974;-1.086;2023-04-03T04:50:34;11;11;
33264;PMS5003;31404;53.974;-1.086;2023-04-03T04:55:33;10;10;
33264;PMS5003;31404;53.974;-1.086;2023-04-03T05:00:34;12;10;
33264;PMS5003;31404;53.974;-1.086;2023-04-03T05:05:34;12;10;
33264;PMS5003;31404;53.974;-1.086;2023-04-03T05:10:34;12;12;
33264;PMS5003;31404;53.974;-1.086;2023-04-03T05:15:38;26;25;
33264;PMS5003;31404;53.974;-1.086;2023-04-03T05:20:34;18;17;
33264;PMS5003;31404;53.974;-1.086;2023-04-03T05:25:37;14;10;
33264;PMS5003;31404;53.974;-1.086;2023-04-03T05:30:34;9;8;
33264;PMS5003;31404;53.974;-1.086;2023-04-03T05:35:35;12;12;
33264;PMS5003;31404;53.974;-1.086;2023-04-03T05:40:34;14;10;
33264;PMS5003;31404;53.974;-1.086;2023-04-03T05:45:34;15;9;
33264;PMS5003;31404;53.974;-1.086;2023-04-03T05:50:34;10;10;
33264;PMS5003;31404;53.974;-1.086;2023-04-03T05:55:34;8;8;
33264;PMS5003;31404;53.974;-1.086;2023-04-03T06:00:35;10;8;
33264;PMS5003;31404;53.974;-1.086;2023-04-03T06:05:34;12;11;
33264;PMS5003;31404;53.974;-1.086;2023-04-03T06:10:34;12;11;
33264;PMS5003;31404;53.974;-1.086;2023-04-03T06:15:34;18;12;
33264;PMS5003;31404;53.974;-1.086;2023-04-03T06:20:34;14;12;
33264;PMS5003;31404;53.974;-1.086;2023-04-03T06:25:34;13;9;
33264;PMS5003;31404;53.974;-1.086;2023-04-03T06:30:34;12;12;
33264;PMS5003;31404;53.974;-1.086;2023-04-03T06:35:34;15;13;
33264;PMS5003;31404;53.974;-1.086;2023-04-03T06:40:34;21;19;
33264;PMS5003;31404;53.974;-1.086;2023-04-03T06:45:34;18;18;
33264;PMS5003;31404;53.974;-1.086;2023-04-03T06:50:34;20;16;
33264;PMS5003;31404;53.974;-1.086;2023-04-03T06:55:34;16;13;
33264;PMS5003;31404;53.974;-1.086;2023-04-03T07:00:35;10;10;
33264;PMS5003;31404;53.974;-1.086;2023-04-03T07:05:34;9;9;
33264;PMS5003;31404;53.974;-1.086;2023-04-03T07:10:34;13;11;
33264;PMS5003;31404;53.974;-1.086;2023-04-03T07:15:34;10;8;
33264;PMS5003;31404;53.974;-1.086;2023-04-03T07:20:34;9;9;
33264;PMS5003;31404;53.974;-1.086;2023-04-03T07:25:34;11;9;
33264;PMS5003;31404;53.974;-1.086;2023-04-03T07:30:34;10;7;
33264;PMS5003;31404;53.974;-1.086;2023-04-03T07:35:34;11;7;
33264;PMS5003;31404;53.974;-1.086;2023-04-03T07:40:34;11;9;
33264;PMS5003;31404;53.974;-1.086;2023-04-03T07:45:51;5;5;
33264;PMS5003;31404;53.974;-1.086;2023-04-03T07:50:34;6;6;
33264;PMS5003;31404;53.974;-1.086;2023-04-03T07:55:34;8;8;
33264;PMS5003;31404;53.974;-1.086;2023-04-03T08:00:35;5;4;
33264;PMS5003;31404;53.974;-1.086;2023-04-03T08:05:36;7;4;
33264;PMS5003;31404;53.974;-1.086;2023-04-03T08:10:34;4;4;
33264;PMS5003;31404;53.974;-1.086;2023-04-03T08:15:35;6;4;
33264;PMS5003;31404;53.974;-1.086;2023-04-03T08:20:34;6;4;
33264;PMS5003;31404;53.974;-1.086;2023-04-03T08:25:37;2;2;
33264;PMS5003;31404;53.974;-1.086;2023-04-03T08:30:34;2;2;
33264;PMS5003;31404;53.974;-1.086;2023-04-03T08:40:34;5;2;
33264;PMS5003;31404;53.974;-1.086;2023-04-03T08:45:37;4;3;
33264;PMS5003;31404;53.974;-1.086;2023-04-03T08:50:36;4;4;
33264;PMS5003;31404;53.974;-1.086;2023-04-03T08:55:37;7;5;
33264;PMS5003;31404;53.974;-1.086;2023-04-03T09:00:37;5;4;
33264;PMS5003;31404;53.974;-1.086;2023-04-03T09:05:38;6;4;
33264;PMS5003;31404;53.974;-1.086;2023-04-03T09:10:34;5;5;
33264;PMS5003;31404;53.974;-1.086;2023-04-03T09:15:34;5;5;
33264;PMS5003;31404;53.974;-1.086;2023-04-03T09:25:35;3;3;
33264;PMS5003;31404;53.974;-1.086;2023-04-03T09:30:34;6;6;
33264;PMS5003;31404;53.974;-1.086;2023-04-03T09:35:35;5;5;
33264;PMS5003;31404;53.974;-1.086;2023-04-03T09:40:36;9;8;
33264;PMS5003;31404;53.974;-1.086;2023-04-03T09:45:34;5;5;
33264;PMS5003;31404;53.974;-1.086;2023-04-03T09:50:34;6;5;
33264;PMS5003;31404;53.974;-1.086;2023-04-03T10:00:34;5;4;
33264;PMS5003;31404;53.974;-1.086;2023-04-03T10:05:34;6;6;
33264;PMS5003;31404;53.974;-1.086;2023-04-03T10:10:34;5;3;
33264;PMS5003;31404;53.974;-1.086;2023-04-03T10:15:36;7;7;
33264;PMS5003;31404;53.974;-1.086;2023-04-03T10:20:34;6;6;
33264;PMS5003;31404;53.974;-1.086;2023-04-03T10:25:35;7;6;
33264;PMS5003;31404;53.974;-1.086;2023-04-03T10:30:36;16;7;
33264;PMS5003;31404;53.974;-1.086;2023-04-03T10:40:35;7;7;
33264;PMS5003;31404;53.974;-1.086;2023-04-03T10:50:38;5;5;
33264;PMS5003;31404;53.974;-1.086;2023-04-03T10:55:35;5;5;
33264;PMS5003;31404;53.974;-1.086;2023-04-03T11:00:36;10;10;
33264;PMS5003;31404;53.974;-1.086;2023-04-03T11:05:35;7;7;
33264;PMS5003;31404;53.974;-1.086;2023-04-03T11:10:36;10;8;
33264;PMS5003;31404;53.974;-1.086;2023-04-03T11:15:34;8;8;
33264;PMS5003;31404;53.974;-1.086;2023-04-03T11:20:35;7;7;
33264;PMS5003;31404;53.974;-1.086;2023-04-03T11:25:34;10;8;
33264;PMS5003;31404;53.974;-1.086;2023-04-03T11:30:38;8;7;
33264;PMS5003;31404;53.974;-1.086;2023-04-03T11:35:34;6;6;
33264;PMS5003;31404;53.974;-1.086;2023-04-03T11:40:35;7;7;
33264;PMS5003;31404;53.974;-1.086;2023-04-03T11:45:37;10;9;
33264;PMS5003;31404;53.974;-1.086;2023-04-03T12:05:34;5;5;
33264;PMS5003;31404;53.974;-1.086;2023-04-03T12:10:34;5;4;
33264;PMS5003;31404;53.974;-1.086;2023-04-03T12:30:34;5;4;
33264;PMS5003;31404;53.974;-1.086;2023-04-03T12:35:43;7;6;
33264;PMS5003;31404;53.974;-1.086;2023-04-03T12:40:35;4;3;
33264;PMS5003;31404;53.974;-1.086;2023-04-03T12:50:34;4;4;
33264;PMS5003;31404;53.974;-1.086;2023-04-03T12:55:34;3;3;
33264;PMS5003;31404;53.974;-1.086;2023-04-03T13:00:35;5;4;
33264;PMS5003;31404;53.974;-1.086;2023-04-03T13:05:33;4;4;
33264;PMS5003;31404;53.974;-1.086;2023-04-03T13:20:34;8;4;
33264;PMS5003;31404;53.974;-1.086;2023-04-03T13:25:34;4;4;
33264;PMS5003;31404;53.974;-1.086;2023-04-03T13:30:35;6;4;
33264;PMS5003;31404;53.974;-1.086;2023-04-03T13:35:35;7;4;
33264;PMS5003;31404;53.974;-1.086;2023-04-03T13:40:35;3;3;
33264;PMS5003;31404;53.974;-1.086;2023-04-03T13:45:34;6;4;
33264;PMS5003;31404;53.974;-1.086;2023-04-03T13:50:40;5;5;
33264;PMS5003;31404;53.974;-1.086;2023-04-03T13:55:35;6;6;
33264;PMS5003;31404;53.974;-1.086;2023-04-03T14:00:35;9;8;
33264;PMS5003;31404;53.974;-1.086;2023-04-03T14:05:34;5;4;
33264;PMS5003;31404;53.974;-1.086;2023-04-03T14:10:34;4;4;
33264;PMS5003;31404;53.974;-1.086;2023-04-03T14:15:34;3;3;
33264;PMS5003;31404;53.974;-1.086;2023-04-03T14:20:34;5;5;
33264;PMS5003;31404;53.974;-1.086;2023-04-03T14:25:34;7;5;
33264;PMS5003;31404;53.974;-1.086;2023-04-03T14:30:39;2;2;
33264;PMS5003;31404;53.974;-1.086;2023-04-03T14:35:34;4;4;
33264;PMS5003;31404;53.974;-1.086;2023-04-03T14:40:34;7;7;
33264;PMS5003;31404;53.974;-1.086;2023-04-03T14:45:34;4;4;
33264;PMS5003;31404;53.974;-1.086;2023-04-03T14:50:34;5;5;
33264;PMS5003;31404;53.974;-1.086;2023-04-03T14:55:34;6;6;
33264;PMS5003;31404;53.974;-1.086;2023-04-03T15:00:35;5;5;
33264;PMS5003;31404;53.974;-1.086;2023-04-03T15:05:34;5;5;
33264;PMS5003;31404;53.974;-1.086;2023-04-03T15:10:34;6;6;
33264;PMS5003;31404;53.974;-1.086;2023-04-03T15:15:34;6;6;
33264;PMS5003;31404;53.974;-1.086;2023-04-03T15:20:34;6;6;
33264;PMS5003;31404;53.974;-1.086;2023-04-03T15:25:34;7;6;
33264;PMS5003;31404;53.974;-1.086;2023-04-03T15:30:34;5;5;
33264;PMS5003;31404;53.974;-1.086;2023-04-03T15:35:34;12;10;
33264;PMS5003;31404;53.974;-1.086;2023-04-03T15:40:34;7;7;
33264;PMS5003;31404;53.974;-1.086;2023-04-03T15:45:34;7;7;
33264;PMS5003;31404;53.974;-1.086;2023-04-03T15:50:34;9;7;
33264;PMS5003;31404;53.974;-1.086;2023-04-03T15:55:35;9;7;
33264;PMS5003;31404;53.974;-1.086;2023-04-03T16:00:35;6;6;
33264;PMS5003;31404;53.974;-1.086;2023-04-03T16:05:34;6;5;
33264;PMS5003;31404;53.974;-1.086;2023-04-03T16:10:35;8;7;
33264;PMS5003;31404;53.974;-1.086;2023-04-03T16:15:34;6;5;
33264;PMS5003;31404;53.974;-1.086;2023-04-03T16:20:34;6;6;
33264;PMS5003;31404;53.974;-1.086;2023-04-03T16:25:34;4;4;
33264;PMS5003;31404;53.974;-1.086;2023-04-03T16:30:34;5;5;
33264;PMS5003;31404;53.974;-1.086;2023-04-03T16:35:34;8;7;
33264;PMS5003;31404;53.974;-1.086;2023-04-03T16:40:34;6;6;
33264;PMS5003;31404;53.974;-1.086;2023-04-03T16:45:34;7;6;
33264;PMS5003;31404;53.974;-1.086;2023-04-03T16:55:35;6;6;
33264;PMS5003;31404;53.974;-1.086;2023-04-03T17:00:34;9;6;
33264;PMS5003;31404;53.974;-1.086;2023-04-03T17:05:34;6;6;
33264;PMS5003;31404;53.974;-1.086;2023-04-03T17:10:34;9;7;
33264;PMS5003;31404;53.974;-1.086;2023-04-03T17:15:34;7;7;
33264;PMS5003;31404;53.974;-1.086;2023-04-03T17:20:34;4;4;
33264;PMS5003;31404;53.974;-1.086;2023-04-03T17:25:33;11;9;
33264;PMS5003;31404;53.974;-1.086;2023-04-03T17:30:34;6;6;
33264;PMS5003;31404;53.974;-1.086;2023-04-03T17:35:35;12;7;
33264;PMS5003;31404;53.974;-1.086;2023-04-03T17:40:40;6;6;
33264;PMS5003;31404;53.974;-1.086;2023-04-03T17:45:33;31;23;
33264;PMS5003;31404;53.974;-1.086;2023-04-03T17:50:33;11;9;
33264;PMS5003;31404;53.974;-1.086;2023-04-03T17:55:35;8;6;
33264;PMS5003;31404;53.974;-1.086;2023-04-03T18:00:35;12;9;
33264;PMS5003;31404;53.974;-1.086;2023-04-03T18:05:34;12;12;
33264;PMS5003;31404;53.974;-1.086;2023-04-03T18:10:34;7;7;
33264;PMS5003;31404;53.974;-1.086;2023-04-03T18:15:34;11;8;
33264;PMS5003;31404;53.974;-1.086;2023-04-03T18:20:34;12;10;
33264;PMS5003;31404;53.974;-1.086;2023-04-03T18:25:35;9;9;
33264;PMS5003;31404;53.974;-1.086;2023-04-03T18:30:34;8;8;
33264;PMS5003;31404;53.974;-1.086;2023-04-03T18:35:34;10;10;
33264;PMS5003;31404;53.974;-1.086;2023-04-03T18:40:34;11;10;
33264;PMS5003;31404;53.974;-1.086;2023-04-03T18:45:34;8;8;
33264;PMS5003;31404;53.974;-1.086;2023-04-03T18:50:34;10;10;
33264;PMS5003;31404;53.974;-1.086;2023-04-03T18:55:33;12;12;
33264;PMS5003;31404;53.974;-1.086;2023-04-03T19:00:34;10;10;
33264;PMS5003;31404;53.974;-1.086;2023-04-03T19:05:34;9;9;
33264;PMS5003;31404;53.974;-1.086;2023-04-03T19:10:34;16;13;
33264;PMS5003;31404;53.974;-1.086;2023-04-03T19:15:34;14;14;
33264;PMS5003;31404;53.974;-1.086;2023-04-03T19:20:33;11;9;
33264;PMS5003;31404;53.974;-1.086;2023-04-03T19:25:34;13;13;
33264;PMS5003;31404;53.974;-1.086;2023-04-03T19:30:35;16;12;
33264;PMS5003;31404;53.974;-1.086;2023-04-03T19:35:34;15;11;
33264;PMS5003;31404;53.974;-1.086;2023-04-03T19:40:34;16;13;
33264;PMS5003;31404;53.974;-1.086;2023-04-03T19:45:34;15;11;
33264;PMS5003;31404;53.974;-1.086;2023-04-03T19:50:34;14;14;
33264;PMS5003;31404;53.974;-1.086;2023-04-03T19:55:34;17;15;
33264;PMS5003;31404;53.974;-1.086;2023-04-03T20:00:34;12;12;
33264;PMS5003;31404;53.974;-1.086;2023-04-03T20:05:34;17;16;
33264;PMS5003;31404;53.974;-1.086;2023-04-03T20:10:33;20;19;
33264;PMS5003;31404;53.974;-1.086;2023-04-03T20:15:34;12;11;
33264;PMS5003;31404;53.974;-1.086;2023-04-03T20:20:34;17;16;
33264;PMS5003;31404;53.974;-1.086;2023-04-03T20:25:33;15;13;
33264;PMS5003;31404;53.974;-1.086;2023-04-03T20:30:34;11;11;
33264;PMS5003;31404;53.974;-1.086;2023-04-03T20:35:34;15;15;
33264;PMS5003;31404;53.974;-1.086;2023-04-03T20:40:35;15;15;
33264;PMS5003;31404;53.974;-1.086;2023-04-03T20:45:34;15;13;
33264;PMS5003;31404;53.974;-1.086;2023-04-03T20:50:34;16;14;
33264;PMS5003;31404;53.974;-1.086;2023-04-03T20:55:34;19;15;
33264;PMS5003;31404;53.974;-1.086;2023-04-03T21:00:35;17;16;
33264;PMS5003;31404;53.974;-1.086;2023-04-03T21:05:34;16;15;
33264;PMS5003;31404;53.974;-1.086;2023-04-03T21:20:34;15;13;
33264;PMS5003;31404;53.974;-1.086;2023-04-03T21:25:34;15;14;
33264;PMS5003;31404;53.974;-1.086;2023-04-03T21:30:34;15;14;
33264;PMS5003;31404;53.974;-1.086;2023-04-03T21:35:34;16;13;
33264;PMS5003;31404;53.974;-1.086;2023-04-03T21:45:34;17;15;
33264;PMS5003;31404;53.974;-1.086;2023-04-03T21:50:34;17;14;
33264;PMS5003;31404;53.974;-1.086;2023-04-03T21:55:34;9;9;
33264;PMS5003;31404;53.974;-1.086;2023-04-03T22:00:34;14;11;
33264;PMS5003;31404;53.974;-1.086;2023-04-03T22:05:34;8;7;
33264;PMS5003;31404;53.974;-1.086;2023-04-03T22:10:34;11;8;
33264;PMS5003;31404;53.974;-1.086;2023-04-03T22:15:34;8;6;
33264;PMS5003;31404;53.974;-1.086;2023-04-03T22:20:34;5;5;
33264;PMS5003;31404;53.974;-1.086;2023-04-03T22:25:34;10;7;
33264;PMS5003;31404;53.974;-1.086;2023-04-03T22:30:34;5;5;
33264;PMS5003;31404;53.974;-1.086;2023-04-03T22:35:34;7;4;
33264;PMS5003;31404;53.974;-1.086;2023-04-03T22:40:34;4;4;
33264;PMS5003;31404;53.974;-1.086;2023-04-03T22:45:34;3;3;
33264;PMS5003;31404;53.974;-1.086;2023-04-03T22:50:34;6;5;
33264;PMS5003;31404;53.974;-1.086;2023-04-03T22:55:34;4;4;
33264;PMS5003;31404;53.974;-1.086;2023-04-03T23:00:41;4;2;
33264;PMS5003;31404;53.974;-1.086;2023-04-03T23:05:34;4;3;
33264;PMS5003;31404;53.974;-1.086;2023-04-03T23:10:34;2;2;
33264;PMS5003;31404;53.974;-1.086;2023-04-03T23:15:34;4;4;
33264;PMS5003;31404;53.974;-1.086;2023-04-03T23:20:35;4;4;
33264;PMS5003;31404;53.974;-1.086;2023-04-03T23:25:34;4;4;
33264;PMS5003;31404;53.974;-1.086;2023-04-03T23:30:33;3;3;
33264;PMS5003;31404;53.974;-1.086;2023-04-03T23:40:34;4;4;
33264;PMS5003;31404;53.974;-1.086;2023-04-03T23:45:34;4;4;
33264;PMS5003;31404;53.974;-1.086;2023-04-03T23:50:34;6;5;
33264;PMS5003;31404;53.974;-1.086;2023-04-03T23:55:35;5;3;
